createdAt,value
2022-09-05T00:02:29.188Z,20.66
2022-09-05T00:05:24.509Z,20.55
2022-09-05T00:08:25.606Z,20.54
2022-09-05T00:11:43.191Z,20.30
2022-09-05T00:13:48.975Z,20.35
2022-09-05T00:16:37.501Z,20.40
2022-09-05T00:24:20.190Z,20.46
2022-09-05T00:24:27.839Z,20.54
2022-09-05T00:25:30.435Z,20.26
2022-09-05T00:27:48.110Z,20.29
2022-09-05T00:31:08.073Z,20.29
2022-09-05T00:33:03.623Z,20.19
2022-09-05T00:35:53.063Z,20.23
2022-09-05T00:38:32.127Z,20.20
2022-09-05T00:41:02.477Z,20.23
2022-09-05T00:43:43.805Z,20.17
2022-09-05T00:46:26.264Z,20.13
2022-09-05T00:49:13.565Z,20.07
2022-09-05T00:51:46.416Z,19.97
2022-09-05T00:54:40.576Z,19.90
2022-09-05T00:57:18.093Z,19.90
2022-09-05T01:00:22.717Z,19.90
2022-09-05T01:03:10.034Z,19.96
2022-09-05T01:05:52.182Z,20.10
2022-09-05T01:08:43.114Z,19.89
2022-09-05T01:11:37.132Z,19.96
2022-09-05T01:14:29.259Z,20.06
2022-09-05T01:17:30.241Z,19.90
2022-09-05T01:20:19.230Z,19.85
2022-09-05T01:23:20.478Z,19.79
2022-09-05T01:26:10.003Z,19.75
2022-09-05T01:29:17.835Z,19.87
2022-09-05T01:32:03.600Z,19.74
2022-09-05T01:34:41.562Z,19.71
2022-09-05T01:37:32.673Z,19.55
2022-09-05T01:40:14.438Z,19.55
2022-09-05T01:42:43.661Z,19.52
2022-09-05T01:45:29.087Z,19.62
2022-09-05T01:48:18.213Z,19.61
2022-09-05T01:51:05.358Z,19.54
2022-09-05T01:53:39.220Z,19.59
2022-09-05T01:56:13.050Z,19.48
2022-09-05T01:58:54.267Z,19.51
2022-09-05T02:04:13.740Z,19.58
2022-09-05T02:07:22.491Z,19.61
2022-09-05T02:09:55.274Z,19.53
2022-09-05T02:12:44.428Z,19.60
2022-09-05T02:15:21.554Z,19.71
2022-09-05T02:17:54.116Z,19.38
2022-09-05T02:20:35.435Z,19.40
2022-09-05T02:23:40.434Z,19.52
2022-09-05T02:26:08.193Z,19.42
2022-09-05T02:29:02.942Z,19.50
2022-09-05T02:31:44.718Z,19.41
2022-09-05T02:34:20.255Z,19.38
2022-09-05T02:37:09.446Z,19.33
2022-09-05T02:45:00.129Z,19.19
2022-09-05T02:45:17.869Z,19.24
2022-09-05T02:45:46.101Z,19.20
2022-09-05T02:48:22.216Z,19.22
2022-09-05T02:57:26.093Z,19.18
2022-09-05T02:57:41.942Z,19.20
2022-09-05T02:57:43.273Z,19.17
2022-09-05T03:00:02.358Z,19.01
2022-09-05T03:02:43.695Z,18.93
2022-09-05T03:05:24.556Z,18.93
2022-09-05T03:08:12.087Z,18.92
2022-09-05T03:10:55.014Z,18.80
2022-09-05T03:13:53.826Z,18.90
2022-09-05T03:16:47.178Z,18.75
2022-09-05T03:19:47.026Z,18.85
2022-09-05T03:22:53.052Z,18.69
2022-09-05T03:25:43.597Z,18.66
2022-09-05T03:28:38.208Z,18.64
2022-09-05T03:31:26.319Z,18.48
2022-09-05T03:34:32.087Z,18.59
2022-09-05T03:37:33.182Z,18.57
2022-09-05T03:40:15.735Z,18.49
2022-09-05T03:43:00.931Z,18.29
2022-09-05T03:45:54.311Z,18.18
2022-09-05T03:48:44.512Z,18.20
2022-09-05T03:57:08.886Z,18.30
2022-09-05T03:57:16.383Z,18.40
2022-09-05T03:57:18.761Z,18.47
2022-09-05T03:59:55.957Z,18.52
2022-09-05T04:04:39.237Z,18.52
2022-09-05T04:08:17.884Z,18.38
2022-09-05T04:08:27.565Z,18.53
2022-09-05T04:10:32.168Z,18.44
2022-09-05T04:13:07.809Z,18.39
2022-09-05T04:15:46.053Z,18.20
2022-09-05T04:18:25.677Z,18.18
2022-09-05T04:21:05.090Z,18.21
2022-09-05T04:23:37.942Z,18.25
2022-09-05T04:26:14.499Z,18.29
2022-09-05T04:28:53.201Z,18.32
2022-09-05T04:31:29.942Z,18.25
2022-09-05T04:34:21.928Z,18.27
2022-09-05T04:37:03.769Z,18.17
2022-09-05T04:39:34.727Z,18.17
2022-09-05T04:42:09.413Z,18.14
2022-09-05T04:44:48.087Z,18.16
2022-09-05T04:47:21.112Z,18.19
2022-09-05T04:50:10.376Z,18.11
2022-09-05T04:52:43.022Z,18.18
2022-09-05T04:55:18.501Z,18.19
2022-09-05T04:58:07.544Z,18.19
2022-09-05T05:06:01.008Z,18.17
2022-09-05T05:06:16.461Z,18.24
2022-09-05T05:06:30.087Z,18.28
2022-09-05T05:08:43.818Z,18.23
2022-09-05T05:18:03.433Z,18.13
2022-09-05T05:18:11.320Z,18.24
2022-09-05T05:18:11.987Z,18.21
2022-09-05T05:23:07.385Z,18.21
2022-09-05T05:25:52.571Z,18.21
2022-09-05T05:28:34.514Z,18.28
2022-09-05T05:31:16.031Z,18.15
2022-09-05T05:33:48.890Z,18.15
2022-09-05T05:36:21.723Z,18.31
2022-09-05T05:39:00.488Z,18.30
2022-09-05T05:41:48.383Z,18.46
2022-09-05T05:44:21.454Z,18.46
2022-09-05T05:47:03.244Z,18.46
2022-09-05T05:49:38.839Z,18.71
2022-09-05T05:52:29.572Z,18.73
2022-09-05T05:55:50.625Z,18.71
2022-09-05T05:58:11.921Z,18.99
2022-09-05T06:00:51.914Z,19.06
2022-09-05T06:03:51.969Z,19.02
2022-09-05T06:06:33.741Z,19.37
2022-09-05T06:14:51.551Z,19.40
2022-09-05T06:15:00.623Z,19.41
2022-09-05T06:15:24.658Z,19.62
2022-09-05T06:18:03.435Z,19.90
2022-09-05T06:22:05.454Z,20.18
2022-09-05T06:24:10.897Z,20.38
2022-09-05T06:26:51.981Z,20.53
2022-09-05T06:29:55.527Z,20.68
2022-09-05T06:32:55.357Z,20.90
2022-09-05T06:35:28.098Z,21.09
2022-09-05T06:38:26.942Z,21.36
2022-09-05T06:41:02.908Z,21.49
2022-09-05T06:43:54.339Z,21.66
2022-09-05T06:46:55.084Z,21.64
2022-09-05T06:49:30.818Z,21.64
2022-09-05T06:52:32.935Z,21.81
2022-09-05T06:55:38.666Z,21.98
2022-09-05T06:58:27.158Z,22.18
2022-09-05T07:00:59.792Z,22.26
2022-09-05T07:03:52.206Z,22.36
2022-09-05T07:06:49.411Z,22.68
2022-09-05T07:09:39.110Z,22.68
2022-09-05T07:12:21.952Z,23.03
2022-09-05T07:15:08.826Z,23.45
2022-09-05T07:18:06.185Z,23.54
2022-09-05T07:20:23.781Z,23.81
2022-09-05T07:23:47.676Z,24.11
2022-09-05T07:25:37.487Z,24.11
2022-09-05T07:28:28.837Z,24.37
2022-09-05T07:30:44.180Z,24.46
2022-09-05T07:33:22.523Z,24.68
2022-09-05T07:35:53.530Z,24.72
2022-09-05T07:38:35.289Z,24.76
2022-09-05T07:41:06.972Z,24.76
2022-09-05T07:43:40.085Z,25.15
2022-09-05T07:46:15.807Z,25.32
2022-09-05T07:48:48.409Z,25.68
2022-09-05T07:56:55.459Z,25.94
2022-09-05T07:57:08.355Z,26.30
2022-09-05T07:57:23.148Z,26.31
2022-09-05T07:59:19.221Z,26.40
2022-09-05T08:01:52.162Z,26.34
2022-09-05T08:04:32.080Z,26.49
2022-09-05T08:07:48.759Z,26.89
2022-09-05T08:10:07.063Z,27.29
2022-09-05T08:12:27.839Z,27.19
2022-09-05T08:15:06.607Z,27.23
2022-09-05T08:17:59.089Z,27.74
2022-09-05T08:20:55.693Z,27.74
2022-09-05T08:23:37.610Z,27.85
2022-09-05T08:26:28.954Z,28.05
2022-09-05T08:29:30.368Z,28.06
2022-09-05T08:32:14.691Z,28.38
2022-09-05T08:34:47.506Z,28.70
2022-09-05T08:37:22.870Z,28.87
2022-09-05T08:40:10.362Z,29.01
2022-09-05T08:42:35.346Z,28.55
2022-09-05T08:46:43.349Z,28.67
2022-09-05T08:48:17.990Z,28.92
2022-09-05T08:51:24.962Z,29.03
2022-09-05T08:54:21.172Z,28.90
2022-09-05T08:57:02.515Z,28.77
2022-09-05T09:00:18.546Z,28.78
2022-09-05T09:02:47.229Z,28.97
2022-09-05T09:05:58.112Z,28.76
2022-09-05T09:08:15.676Z,29.22
2022-09-05T09:10:55.422Z,29.29
2022-09-05T09:13:37.212Z,29.54
2022-09-05T09:18:56.268Z,29.88
2022-09-05T09:21:49.036Z,29.95
2022-09-05T09:24:40.816Z,30.22
2022-09-05T09:27:31.343Z,30.11
2022-09-05T09:29:56.373Z,30.34
2022-09-05T09:32:26.725Z,30.19
2022-09-05T09:34:59.527Z,30.25
2022-09-05T09:37:59.390Z,30.25
2022-09-05T09:40:28.013Z,30.71
2022-09-05T09:43:15.716Z,30.85
2022-09-05T09:45:57.144Z,30.76
2022-09-05T09:48:50.290Z,31.18
2022-09-05T09:51:47.270Z,31.43
2022-09-05T09:54:28.709Z,31.33
2022-09-05T09:57:20.010Z,31.11
2022-09-05T09:59:59.359Z,31.35
2022-09-05T10:06:30.305Z,31.39
2022-09-05T10:10:44.345Z,31.93
2022-09-05T10:10:48.643Z,32.08
2022-09-05T10:11:40.179Z,31.95
2022-09-05T10:13:44.956Z,31.74
2022-09-05T10:16:34.695Z,32.14
2022-09-05T10:20:07.527Z,31.89
2022-09-05T10:25:19.450Z,31.48
2022-09-05T10:27:57.892Z,31.48
2022-09-05T10:31:18.333Z,32.17
2022-09-05T10:35:14.307Z,32.31
2022-09-05T10:36:31.855Z,32.37
2022-09-05T10:39:23.896Z,32.47
2022-09-05T10:42:25.236Z,32.42
2022-09-05T10:44:57.884Z,32.40
2022-09-05T10:47:33.536Z,32.28
2022-09-05T10:50:31.325Z,32.30
2022-09-05T10:53:06.603Z,32.66
2022-09-05T11:02:16.294Z,32.84
2022-09-05T11:02:30.484Z,32.81
2022-09-05T11:04:46.616Z,32.89
2022-09-05T11:07:29.396Z,32.88
2022-09-05T11:10:04.156Z,33.48
2022-09-05T11:12:57.779Z,33.22
2022-09-05T11:16:03.996Z,33.19
2022-09-05T11:18:30.343Z,32.76
2022-09-05T11:21:32.249Z,33.04
2022-09-05T11:24:27.629Z,33.60
2022-09-05T11:27:23.662Z,33.40
2022-09-05T11:29:45.437Z,32.98
2022-09-05T11:36:30.912Z,32.98
2022-09-05T11:39:51.442Z,33.97
2022-09-05T11:39:57.302Z,33.74
2022-09-05T11:40:59.161Z,33.74
2022-09-05T11:43:39.629Z,34.17
2022-09-05T11:46:33.149Z,33.85
2022-09-05T11:49:08.475Z,33.79
2022-09-05T11:52:09.737Z,34.12
2022-09-05T11:55:04.718Z,33.84
2022-09-05T11:57:49.809Z,34.18
2022-09-05T12:00:31.614Z,34.03
2022-09-05T12:03:53.542Z,34.38
2022-09-05T12:06:21.220Z,34.30
2022-09-05T12:08:57.006Z,34.08
2022-09-05T12:11:43.209Z,34.26
2022-09-05T12:14:31.442Z,34.09
2022-09-05T12:17:10.176Z,34.06
2022-09-05T12:19:41.982Z,34.30
2022-09-05T12:22:32.685Z,34.30
2022-09-05T12:27:20.913Z,34.42
2022-09-05T12:28:28.557Z,34.44
2022-09-05T12:30:42.385Z,34.68
2022-09-05T12:35:59.502Z,34.50
2022-09-05T12:40:48.317Z,34.49
2022-09-05T12:40:59.843Z,34.57
2022-09-05T12:41:42.900Z,34.79
2022-09-05T12:44:37.818Z,34.79
2022-09-05T12:46:37.312Z,34.80
2022-09-05T12:49:11.995Z,34.44
2022-09-05T12:51:47.682Z,34.62
2022-09-05T12:54:38.253Z,34.59
2022-09-05T13:01:08.146Z,34.92
2022-09-05T13:03:07.069Z,34.96
2022-09-05T13:03:14.501Z,34.69
2022-09-05T13:05:01.920Z,34.81
2022-09-05T13:07:43.962Z,35.06
2022-09-05T13:13:56.611Z,34.90
2022-09-05T13:14:54.537Z,35.16
2022-09-05T13:15:37.295Z,35.25
2022-09-05T13:18:17.379Z,34.96
2022-09-05T13:21:08.432Z,35.10
2022-09-05T13:23:41.830Z,34.58
2022-09-05T13:26:23.964Z,34.43
2022-09-05T13:29:09.993Z,34.90
2022-09-05T13:37:54.813Z,34.52
2022-09-05T13:38:04.393Z,34.86
2022-09-05T13:38:14.440Z,34.52
2022-09-05T13:39:55.264Z,34.91
2022-09-05T13:42:33.801Z,35.10
2022-09-05T13:45:04.102Z,35.20
2022-09-05T13:47:51.606Z,35.34
2022-09-05T13:50:29.653Z,35.24
2022-09-05T13:53:24.754Z,35.47
2022-09-05T13:56:03.505Z,35.87
2022-09-05T13:58:42.637Z,36.24
2022-09-05T14:01:25.753Z,36.16
2022-09-05T14:10:29.160Z,35.69
2022-09-05T14:13:24.394Z,35.78
2022-09-05T14:16:02.719Z,35.98
2022-09-05T14:18:36.596Z,35.79
2022-09-05T14:21:17.105Z,35.69
2022-09-05T14:23:58.300Z,35.63
2022-09-05T14:26:39.883Z,36.15
2022-09-05T14:29:14.456Z,35.43
2022-09-05T14:37:41.384Z,35.54
2022-09-05T14:37:59.418Z,36.00
2022-09-05T14:38:15.135Z,35.72
2022-09-05T14:41:18.445Z,35.85
2022-09-05T14:44:07.836Z,36.06
2022-09-05T14:46:42.962Z,35.33
2022-09-05T14:49:51.117Z,35.17
2022-09-05T14:52:35.469Z,35.39
2022-09-05T15:02:43.486Z,34.56
2022-09-05T15:02:44.857Z,34.90
2022-09-05T15:03:03.786Z,34.68
2022-09-05T15:05:32.584Z,34.78
2022-09-05T15:08:16.249Z,34.57
2022-09-05T15:12:18.914Z,34.71
2022-09-05T15:13:19.477Z,34.30
2022-09-05T15:16:02.532Z,34.33
2022-09-05T15:18:31.504Z,34.26
2022-09-05T15:21:33.198Z,34.56
2022-09-05T15:24:03.637Z,34.38
2022-09-05T15:26:34.792Z,34.84
2022-09-05T15:29:14.691Z,35.03
2022-09-05T15:31:45.482Z,35.11
2022-09-05T15:34:28.994Z,35.01
2022-09-05T15:37:09.131Z,34.73
2022-09-05T15:39:32.179Z,34.73
2022-09-05T15:42:16.866Z,34.56
2022-09-05T15:45:08.751Z,34.07
2022-09-05T15:47:24.287Z,34.37
2022-09-05T15:50:00.378Z,34.15
2022-09-05T15:52:41.822Z,34.12
2022-09-05T15:55:23.135Z,33.63
2022-09-05T15:57:55.965Z,33.33
2022-09-05T16:00:51.230Z,32.81
2022-09-05T16:04:28.705Z,32.81
2022-09-05T16:10:40.125Z,33.28
2022-09-05T16:10:49.438Z,33.16
2022-09-05T16:11:59.490Z,32.86
2022-09-05T16:14:11.276Z,33.03
2022-09-05T16:23:11.753Z,33.13
2022-09-05T16:23:15.839Z,32.79
2022-09-05T16:23:32.259Z,32.87
2022-09-05T16:24:59.908Z,32.61
2022-09-05T16:27:03.286Z,32.78
2022-09-05T16:29:36.085Z,32.78
2022-09-05T16:32:29.109Z,32.95
2022-09-05T16:35:14.131Z,32.83
2022-09-05T16:37:52.442Z,32.82
2022-09-05T16:40:27.573Z,32.70
2022-09-05T16:43:00.378Z,32.78
2022-09-05T16:45:49.361Z,32.87
2022-09-05T16:48:50.130Z,32.62
2022-09-05T16:51:35.777Z,32.57
2022-09-05T16:54:40.919Z,32.20
2022-09-05T16:57:13.469Z,31.82
2022-09-05T16:59:45.656Z,31.84
2022-09-05T17:02:40.308Z,31.50
2022-09-05T17:05:15.695Z,31.47
2022-09-05T17:08:00.613Z,31.12
2022-09-05T17:13:40.901Z,31.09
2022-09-05T17:16:17.164Z,30.68
2022-09-05T17:18:51.470Z,30.88
2022-09-05T17:24:21.669Z,30.57
2022-09-05T17:29:17.194Z,30.28
2022-09-05T17:29:30.088Z,30.33
2022-09-05T17:32:16.144Z,30.06
2022-09-05T17:34:52.592Z,30.14
2022-09-05T17:38:11.433Z,29.93
2022-09-05T17:40:37.759Z,29.79
2022-09-05T17:43:29.167Z,29.78
2022-09-05T17:46:18.520Z,29.84
2022-09-05T17:49:18.726Z,29.79
2022-09-05T17:51:31.663Z,29.70
2022-09-05T17:54:06.112Z,29.56
2022-09-05T17:56:40.691Z,29.56
2022-09-05T17:59:24.461Z,29.33
2022-09-05T18:02:12.218Z,29.33
2022-09-05T18:04:50.649Z,29.28
2022-09-05T18:07:32.714Z,29.18
2022-09-05T18:10:14.492Z,29.18
2022-09-05T18:13:14.253Z,29.24
2022-09-05T18:15:32.547Z,29.05
2022-09-05T18:18:07.006Z,29.02
2022-09-05T18:21:09.363Z,29.02
2022-09-05T18:23:39.757Z,28.90
2022-09-05T18:26:24.140Z,28.76
2022-09-05T18:29:02.758Z,28.60
2022-09-05T18:31:43.541Z,28.60
2022-09-05T18:34:19.303Z,28.62
2022-09-05T18:36:56.128Z,28.45
2022-09-05T18:39:29.549Z,28.49
2022-09-05T18:42:33.682Z,28.43
2022-09-05T18:44:49.793Z,28.44
2022-09-05T18:47:33.902Z,28.47
2022-09-05T18:50:24.409Z,28.21
2022-09-05T18:52:38.951Z,28.33
2022-09-05T18:56:12.453Z,28.21
2022-09-05T18:58:08.941Z,28.17
2022-09-05T19:00:44.778Z,28.30
2022-09-05T19:03:31.419Z,28.11
2022-09-05T19:06:34.607Z,28.11
2022-09-05T19:08:47.041Z,28.03
2022-09-05T19:11:28.186Z,28.05
2022-09-05T19:14:25.789Z,28.00
2022-09-05T19:16:43.442Z,27.93
2022-09-05T19:19:16.738Z,27.89
2022-09-05T19:22:33.305Z,27.93
2022-09-05T19:24:42.683Z,27.84
2022-09-05T19:27:28.000Z,27.73
2022-09-05T19:36:47.359Z,27.20
2022-09-05T19:36:51.244Z,27.14
2022-09-05T19:37:13.893Z,26.82
2022-09-05T19:37:26.322Z,26.58
2022-09-05T19:46:17.059Z,26.58
2022-09-05T19:47:30.684Z,26.18
2022-09-05T19:47:41.361Z,26.00
2022-09-05T19:50:11.251Z,25.69
2022-09-05T19:52:41.123Z,25.98
2022-09-05T19:55:25.958Z,25.83
2022-09-05T19:58:19.174Z,25.59
2022-09-05T20:00:29.192Z,25.67
2022-09-05T20:03:01.073Z,25.74
2022-09-05T20:05:31.266Z,25.66
2022-09-05T20:08:01.964Z,25.66
2022-09-05T20:10:34.381Z,25.96
2022-09-05T20:13:15.763Z,25.75
2022-09-05T20:15:45.933Z,25.75
2022-09-05T20:18:21.433Z,25.91
2022-09-05T20:20:57.147Z,26.00
2022-09-05T20:23:31.021Z,26.00
2022-09-05T20:26:01.927Z,26.08
2022-09-05T20:28:37.974Z,26.06
2022-09-05T20:31:10.805Z,26.03
2022-09-05T20:33:43.589Z,26.03
2022-09-05T20:42:35.549Z,26.13
2022-09-05T20:43:21.186Z,26.01
2022-09-05T20:43:28.825Z,25.78
2022-09-05T20:44:15.525Z,25.93
2022-09-05T20:54:10.174Z,25.89
2022-09-05T20:54:17.177Z,25.72
2022-09-05T20:54:18.858Z,25.94
2022-09-05T20:54:53.179Z,25.81
2022-09-05T20:57:28.930Z,25.62
2022-09-05T21:00:07.565Z,25.73
2022-09-05T21:02:37.139Z,25.69
2022-09-05T21:05:21.113Z,25.67
2022-09-05T21:07:46.046Z,25.67
2022-09-05T21:10:23.380Z,25.67
2022-09-05T21:12:58.939Z,25.89
2022-09-05T21:15:53.029Z,25.85
2022-09-05T21:18:15.985Z,25.67
2022-09-05T21:21:29.025Z,25.68
2022-09-05T21:23:40.137Z,25.57
2022-09-05T21:26:25.193Z,25.52
2022-09-05T21:29:08.940Z,25.37
2022-09-05T21:31:54.360Z,25.25
2022-09-05T21:34:25.068Z,24.28
2022-09-05T21:37:06.828Z,24.28
2022-09-05T21:39:34.770Z,24.38
2022-09-05T21:43:36.126Z,24.46
2022-09-05T21:47:43.438Z,24.16
2022-09-05T21:47:46.381Z,23.82
2022-09-05T21:49:41.052Z,24.05
2022-09-05T21:52:11.685Z,23.60
2022-09-05T21:56:35.960Z,23.65
2022-09-05T21:59:28.692Z,23.66
2022-09-05T22:00:07.085Z,23.58
2022-09-05T22:02:32.473Z,23.90
2022-09-05T22:05:04.646Z,23.67
2022-09-05T22:07:37.466Z,23.74
2022-09-05T22:10:10.362Z,23.67
2022-09-05T22:12:40.480Z,23.71
2022-09-05T22:15:29.121Z,23.81
2022-09-05T22:17:47.080Z,23.90
2022-09-05T22:20:20.869Z,23.82
2022-09-05T22:22:56.576Z,23.83
2022-09-05T22:25:28.664Z,24.00
2022-09-05T22:28:07.348Z,23.88
2022-09-05T22:30:38.681Z,23.59
2022-09-05T22:33:09.860Z,23.89
2022-09-05T22:35:40.208Z,23.74
2022-09-05T22:38:17.846Z,23.83
2022-09-05T22:40:44.571Z,23.62
2022-09-05T22:43:14.503Z,23.62
2022-09-05T22:45:44.270Z,23.86
2022-09-05T22:48:15.530Z,23.81
2022-09-05T22:50:45.461Z,23.78
2022-09-05T22:53:15.455Z,23.79
2022-09-05T22:55:45.580Z,23.85
2022-09-05T22:58:16.600Z,23.86
2022-09-05T23:00:46.460Z,23.82
2022-09-05T23:03:16.591Z,23.62
2022-09-05T23:05:47.018Z,23.03
2022-09-05T23:08:16.915Z,23.03
2022-09-05T23:10:46.391Z,22.94
2022-09-05T23:13:16.160Z,22.90
2022-09-05T23:15:45.933Z,22.70
2022-09-05T23:18:15.684Z,22.83
2022-09-05T23:20:45.457Z,22.99
2022-09-05T23:23:15.214Z,23.00
2022-09-05T23:25:45.011Z,23.01
2022-09-05T23:28:14.779Z,23.17
2022-09-05T23:30:44.651Z,23.22
2022-09-05T23:33:14.705Z,23.18
2022-09-05T23:35:44.474Z,23.36
2022-09-05T23:38:14.220Z,23.16
2022-09-05T23:40:46.252Z,23.17
2022-09-05T23:43:15.970Z,23.07
2022-09-05T23:45:47.807Z,23.10
2022-09-05T23:48:17.757Z,22.97
2022-09-05T23:50:47.601Z,22.81
2022-09-05T23:53:18.071Z,22.84
2022-09-05T23:55:47.930Z,22.89
2022-09-05T23:58:18.121Z,22.79
